sensor_id;sensor_type;location;lat;lon;timestamp;P1;durP1;ratioP1;P2;durP2;ratioP2
41394;SDS011;27136;53.810;8.886;2022-08-06T00:00:26;2.53;;;0.60;;
41394;SDS011;27136;53.810;8.886;2022-08-06T00:02:51;2.80;;;0.90;;
41394;SDS011;27136;53.810;8.886;2022-08-06T00:05:17;1.70;;;0.80;;
41394;SDS011;27136;53.810;8.886;2022-08-06T00:07:43;1.30;;;0.50;;
41394;SDS011;27136;53.810;8.886;2022-08-06T00:10:08;1.75;;;0.60;;
41394;SDS011;27136;53.810;8.886;2022-08-06T00:12:34;2.55;;;0.57;;
41394;SDS011;27136;53.810;8.886;2022-08-06T00:15:00;5.28;;;1.48;;
41394;SDS011;27136;53.810;8.886;2022-08-06T00:17:27;3.53;;;0.75;;
41394;SDS011;27136;53.810;8.886;2022-08-06T00:19:52;1.80;;;0.73;;
41394;SDS011;27136;53.810;8.886;2022-08-06T00:22:18;1.90;;;0.52;;
41394;SDS011;27136;53.810;8.886;2022-08-06T00:24:43;3.72;;;0.73;;
41394;SDS011;27136;53.810;8.886;2022-08-06T00:27:09;4.13;;;1.00;;
41394;SDS011;27136;53.810;8.886;2022-08-06T00:29:35;1.90;;;1.00;;
41394;SDS011;27136;53.810;8.886;2022-08-06T00:32:00;1.63;;;0.68;;
41394;SDS011;27136;53.810;8.886;2022-08-06T00:34:26;5.10;;;1.10;;
41394;SDS011;27136;53.810;8.886;2022-08-06T00:36:51;2.30;;;0.70;;
41394;SDS011;27136;53.810;8.886;2022-08-06T00:39:17;3.38;;;0.95;;
41394;SDS011;27136;53.810;8.886;2022-08-06T00:41:42;1.42;;;0.93;;
41394;SDS011;27136;53.810;8.886;2022-08-06T00:44:08;2.17;;;0.65;;
41394;SDS011;27136;53.810;8.886;2022-08-06T00:46:34;3.20;;;0.85;;
41394;SDS011;27136;53.810;8.886;2022-08-06T00:49:00;2.78;;;0.70;;
41394;SDS011;27136;53.810;8.886;2022-08-06T00:51:25;2.75;;;0.90;;
41394;SDS011;27136;53.810;8.886;2022-08-06T00:53:51;1.10;;;0.68;;
41394;SDS011;27136;53.810;8.886;2022-08-06T00:56:18;1.40;;;0.70;;
41394;SDS011;27136;53.810;8.886;2022-08-06T00:58:44;1.10;;;0.70;;
41394;SDS011;27136;53.810;8.886;2022-08-06T01:01:09;0.77;;;0.52;;
41394;SDS011;27136;53.810;8.886;2022-08-06T01:03:36;2.05;;;0.60;;
41394;SDS011;27136;53.810;8.886;2022-08-06T01:06:02;2.30;;;0.65;;
41394;SDS011;27136;53.810;8.886;2022-08-06T01:08:28;3.25;;;0.80;;
41394;SDS011;27136;53.810;8.886;2022-08-06T01:10:54;1.67;;;0.63;;
41394;SDS011;27136;53.810;8.886;2022-08-06T01:13:19;1.10;;;1.00;;
41394;SDS011;27136;53.810;8.886;2022-08-06T01:15:51;2.13;;;0.88;;
41394;SDS011;27136;53.810;8.886;2022-08-06T01:18:40;3.08;;;0.90;;
41394;SDS011;27136;53.810;8.886;2022-08-06T01:24:11;2.38;;;0.60;;
41394;SDS011;27136;53.810;8.886;2022-08-06T01:27:19;0.90;;;0.47;;
41394;SDS011;27136;53.810;8.886;2022-08-06T01:29:56;0.77;;;0.50;;
41394;SDS011;27136;53.810;8.886;2022-08-06T01:32:29;1.83;;;0.70;;
41394;SDS011;27136;53.810;8.886;2022-08-06T01:34:59;2.28;;;0.60;;
41394;SDS011;27136;53.810;8.886;2022-08-06T01:37:32;1.52;;;0.70;;
41394;SDS011;27136;53.810;8.886;2022-08-06T01:40:00;1.10;;;0.73;;
41394;SDS011;27136;53.810;8.886;2022-08-06T01:42:29;2.42;;;0.85;;
41394;SDS011;27136;53.810;8.886;2022-08-06T01:44:56;6.63;;;0.73;;
41394;SDS011;27136;53.810;8.886;2022-08-06T01:47:27;1.50;;;0.68;;
41394;SDS011;27136;53.810;8.886;2022-08-06T01:49:57;2.78;;;0.60;;
41394;SDS011;27136;53.810;8.886;2022-08-06T01:52:27;4.93;;;0.98;;
41394;SDS011;27136;53.810;8.886;2022-08-06T01:55:01;0.80;;;0.52;;
41394;SDS011;27136;53.810;8.886;2022-08-06T01:57:30;3.55;;;0.82;;
41394;SDS011;27136;53.810;8.886;2022-08-06T01:59:58;0.98;;;0.60;;
41394;SDS011;27136;53.810;8.886;2022-08-06T02:02:26;1.73;;;0.70;;
41394;SDS011;27136;53.810;8.886;2022-08-06T02:04:54;4.80;;;0.77;;
41394;SDS011;27136;53.810;8.886;2022-08-06T02:07:23;3.40;;;0.80;;
41394;SDS011;27136;53.810;8.886;2022-08-06T02:09:52;0.98;;;0.60;;
41394;SDS011;27136;53.810;8.886;2022-08-06T02:12:21;0.50;;;0.47;;
41394;SDS011;27136;53.810;8.886;2022-08-06T02:14:52;1.27;;;0.80;;
41394;SDS011;27136;53.810;8.886;2022-08-06T02:17:21;1.05;;;0.70;;
41394;SDS011;27136;53.810;8.886;2022-08-06T02:19:52;2.17;;;0.70;;
41394;SDS011;27136;53.810;8.886;2022-08-06T02:22:20;2.17;;;0.73;;
41394;SDS011;27136;53.810;8.886;2022-08-06T02:24:47;2.03;;;0.90;;
41394;SDS011;27136;53.810;8.886;2022-08-06T02:27:14;2.72;;;0.75;;
41394;SDS011;27136;53.810;8.886;2022-08-06T02:29:42;1.73;;;0.63;;
41394;SDS011;27136;53.810;8.886;2022-08-06T02:34:38;2.88;;;0.75;;
41394;SDS011;27136;53.810;8.886;2022-08-06T02:37:14;1.48;;;0.60;;
41394;SDS011;27136;53.810;8.886;2022-08-06T02:39:52;1.45;;;0.65;;
41394;SDS011;27136;53.810;8.886;2022-08-06T02:45:03;3.13;;;0.70;;
41394;SDS011;27136;53.810;8.886;2022-08-06T02:47:34;1.25;;;0.90;;
41394;SDS011;27136;53.810;8.886;2022-08-06T02:52:35;0.88;;;0.63;;
41394;SDS011;27136;53.810;8.886;2022-08-06T02:55:19;3.45;;;0.90;;
41394;SDS011;27136;53.810;8.886;2022-08-06T02:57:52;3.30;;;0.75;;
41394;SDS011;27136;53.810;8.886;2022-08-06T03:00:22;3.70;;;0.82;;
41394;SDS011;27136;53.810;8.886;2022-08-06T03:02:51;2.75;;;1.10;;
41394;SDS011;27136;53.810;8.886;2022-08-06T03:05:20;2.65;;;0.85;;
41394;SDS011;27136;53.810;8.886;2022-08-06T03:07:48;3.42;;;0.85;;
41394;SDS011;27136;53.810;8.886;2022-08-06T03:10:21;2.60;;;1.00;;
41394;SDS011;27136;53.810;8.886;2022-08-06T03:12:49;2.72;;;1.27;;
41394;SDS011;27136;53.810;8.886;2022-08-06T03:17:44;1.80;;;0.80;;
41394;SDS011;27136;53.810;8.886;2022-08-06T03:20:10;3.25;;;0.90;;
41394;SDS011;27136;53.810;8.886;2022-08-06T03:22:40;1.42;;;1.08;;
41394;SDS011;27136;53.810;8.886;2022-08-06T03:25:07;1.73;;;0.90;;
41394;SDS011;27136;53.810;8.886;2022-08-06T03:27:35;1.65;;;0.77;;
41394;SDS011;27136;53.810;8.886;2022-08-06T03:30:02;0.83;;;0.80;;
41394;SDS011;27136;53.810;8.886;2022-08-06T03:32:28;3.25;;;1.20;;
41394;SDS011;27136;53.810;8.886;2022-08-06T03:34:55;3.60;;;1.20;;
41394;SDS011;27136;53.810;8.886;2022-08-06T03:37:22;1.67;;;0.88;;
41394;SDS011;27136;53.810;8.886;2022-08-06T03:39:49;0.93;;;0.77;;
41394;SDS011;27136;53.810;8.886;2022-08-06T03:42:16;6.23;;;1.53;;
41394;SDS011;27136;53.810;8.886;2022-08-06T03:44:42;1.42;;;1.13;;
41394;SDS011;27136;53.810;8.886;2022-08-06T03:52:39;2.33;;;1.02;;
41394;SDS011;27136;53.810;8.886;2022-08-06T03:55:08;3.33;;;0.90;;
41394;SDS011;27136;53.810;8.886;2022-08-06T03:57:38;3.10;;;0.98;;
41394;SDS011;27136;53.810;8.886;2022-08-06T04:00:07;2.10;;;1.02;;
41394;SDS011;27136;53.810;8.886;2022-08-06T04:02:38;2.95;;;0.90;;
41394;SDS011;27136;53.810;8.886;2022-08-06T04:05:06;1.75;;;0.93;;
41394;SDS011;27136;53.810;8.886;2022-08-06T04:10:00;1.88;;;1.25;;
41394;SDS011;27136;53.810;8.886;2022-08-06T04:12:27;2.25;;;1.00;;
41394;SDS011;27136;53.810;8.886;2022-08-06T04:14:54;2.50;;;1.00;;
41394;SDS011;27136;53.810;8.886;2022-08-06T04:17:22;1.13;;;0.90;;
41394;SDS011;27136;53.810;8.886;2022-08-06T04:19:48;1.42;;;1.15;;
41394;SDS011;27136;53.810;8.886;2022-08-06T04:22:16;0.70;;;0.70;;
41394;SDS011;27136;53.810;8.886;2022-08-06T04:24:42;2.92;;;0.95;;
41394;SDS011;27136;53.810;8.886;2022-08-06T04:27:07;3.00;;;1.20;;
41394;SDS011;27136;53.810;8.886;2022-08-06T04:29:38;2.13;;;0.93;;
41394;SDS011;27136;53.810;8.886;2022-08-06T04:32:05;2.45;;;1.10;;
41394;SDS011;27136;53.810;8.886;2022-08-06T04:34:32;3.28;;;1.10;;
41394;SDS011;27136;53.810;8.886;2022-08-06T04:36:59;2.15;;;0.90;;
41394;SDS011;27136;53.810;8.886;2022-08-06T04:39:26;7.03;;;1.38;;
41394;SDS011;27136;53.810;8.886;2022-08-06T04:41:53;3.80;;;1.00;;
41394;SDS011;27136;53.810;8.886;2022-08-06T04:44:20;3.38;;;1.13;;
41394;SDS011;27136;53.810;8.886;2022-08-06T04:46:46;2.47;;;0.93;;
41394;SDS011;27136;53.810;8.886;2022-08-06T04:49:15;2.47;;;1.20;;
41394;SDS011;27136;53.810;8.886;2022-08-06T04:51:44;3.70;;;1.15;;
41394;SDS011;27136;53.810;8.886;2022-08-06T04:54:13;5.72;;;1.02;;
41394;SDS011;27136;53.810;8.886;2022-08-06T04:56:40;2.15;;;1.00;;
41394;SDS011;27136;53.810;8.886;2022-08-06T04:59:07;1.98;;;0.70;;
41394;SDS011;27136;53.810;8.886;2022-08-06T05:01:33;1.70;;;0.85;;
41394;SDS011;27136;53.810;8.886;2022-08-06T05:03:59;1.00;;;0.68;;
41394;SDS011;27136;53.810;8.886;2022-08-06T05:06:33;3.33;;;0.80;;
41394;SDS011;27136;53.810;8.886;2022-08-06T05:09:02;8.43;;;1.38;;
41394;SDS011;27136;53.810;8.886;2022-08-06T05:11:33;2.33;;;0.50;;
41394;SDS011;27136;53.810;8.886;2022-08-06T05:14:08;0.95;;;0.70;;
41394;SDS011;27136;53.810;8.886;2022-08-06T05:16:39;2.22;;;1.25;;
41394;SDS011;27136;53.810;8.886;2022-08-06T05:19:10;6.78;;;1.00;;
41394;SDS011;27136;53.810;8.886;2022-08-06T05:21:41;0.90;;;0.55;;
41394;SDS011;27136;53.810;8.886;2022-08-06T05:24:09;2.20;;;0.70;;
41394;SDS011;27136;53.810;8.886;2022-08-06T05:26:35;1.17;;;0.65;;
41394;SDS011;27136;53.810;8.886;2022-08-06T05:29:01;1.75;;;0.70;;
41394;SDS011;27136;53.810;8.886;2022-08-06T05:31:33;1.23;;;0.60;;
41394;SDS011;27136;53.810;8.886;2022-08-06T05:34:05;3.38;;;1.00;;
41394;SDS011;27136;53.810;8.886;2022-08-06T05:36:34;3.50;;;0.77;;
41394;SDS011;27136;53.810;8.886;2022-08-06T05:39:00;0.55;;;0.50;;
41394;SDS011;27136;53.810;8.886;2022-08-06T05:41:26;0.65;;;0.60;;
41394;SDS011;27136;53.810;8.886;2022-08-06T05:43:53;3.17;;;1.15;;
41394;SDS011;27136;53.810;8.886;2022-08-06T05:46:19;1.95;;;0.90;;
41394;SDS011;27136;53.810;8.886;2022-08-06T05:49:30;3.15;;;0.80;;
41394;SDS011;27136;53.810;8.886;2022-08-06T05:51:43;3.67;;;0.70;;
41394;SDS011;27136;53.810;8.886;2022-08-06T05:54:18;3.58;;;0.80;;
41394;SDS011;27136;53.810;8.886;2022-08-06T05:57:14;2.08;;;1.25;;
41394;SDS011;27136;53.810;8.886;2022-08-06T05:59:50;0.95;;;0.70;;
41394;SDS011;27136;53.810;8.886;2022-08-06T06:02:21;1.50;;;0.77;;
41394;SDS011;27136;53.810;8.886;2022-08-06T06:04:48;2.65;;;0.80;;
41394;SDS011;27136;53.810;8.886;2022-08-06T06:07:14;0.95;;;0.80;;
41394;SDS011;27136;53.810;8.886;2022-08-06T06:09:41;3.45;;;0.85;;
41394;SDS011;27136;53.810;8.886;2022-08-06T06:12:08;1.63;;;0.70;;
41394;SDS011;27136;53.810;8.886;2022-08-06T06:14:42;1.53;;;0.80;;
41394;SDS011;27136;53.810;8.886;2022-08-06T06:20:13;2.47;;;0.70;;
41394;SDS011;27136;53.810;8.886;2022-08-06T06:22:54;2.83;;;0.80;;
41394;SDS011;27136;53.810;8.886;2022-08-06T06:28:28;4.05;;;1.40;;
41394;SDS011;27136;53.810;8.886;2022-08-06T06:31:04;1.23;;;0.55;;
41394;SDS011;27136;53.810;8.886;2022-08-06T06:33:44;1.73;;;0.60;;
41394;SDS011;27136;53.810;8.886;2022-08-06T06:36:20;1.98;;;0.90;;
41394;SDS011;27136;53.810;8.886;2022-08-06T06:44:13;3.05;;;1.08;;
41394;SDS011;27136;53.810;8.886;2022-08-06T06:46:51;2.72;;;0.80;;
41394;SDS011;27136;53.810;8.886;2022-08-06T06:49:34;2.60;;;0.68;;
41394;SDS011;27136;53.810;8.886;2022-08-06T06:52:57;2.65;;;0.68;;
41394;SDS011;27136;53.810;8.886;2022-08-06T06:57:36;4.65;;;1.52;;
41394;SDS011;27136;53.810;8.886;2022-08-06T07:00:07;3.40;;;0.75;;
41394;SDS011;27136;53.810;8.886;2022-08-06T07:02:35;1.67;;;0.77;;
41394;SDS011;27136;53.810;8.886;2022-08-06T07:05:05;2.58;;;1.05;;
41394;SDS011;27136;53.810;8.886;2022-08-06T07:07:34;1.17;;;0.63;;
41394;SDS011;27136;53.810;8.886;2022-08-06T07:10:03;2.75;;;0.80;;
41394;SDS011;27136;53.810;8.886;2022-08-06T07:12:31;3.70;;;1.20;;
41394;SDS011;27136;53.810;8.886;2022-08-06T07:15:00;3.05;;;1.08;;
41394;SDS011;27136;53.810;8.886;2022-08-06T07:17:30;1.77;;;0.85;;
41394;SDS011;27136;53.810;8.886;2022-08-06T07:19:59;3.53;;;0.93;;
41394;SDS011;27136;53.810;8.886;2022-08-06T07:22:27;3.95;;;1.10;;
41394;SDS011;27136;53.810;8.886;2022-08-06T07:24:55;2.28;;;0.93;;
41394;SDS011;27136;53.810;8.886;2022-08-06T07:27:26;3.47;;;1.13;;
41394;SDS011;27136;53.810;8.886;2022-08-06T07:29:55;5.38;;;1.17;;
41394;SDS011;27136;53.810;8.886;2022-08-06T07:32:22;3.25;;;0.98;;
41394;SDS011;27136;53.810;8.886;2022-08-06T07:34:48;4.13;;;1.00;;
41394;SDS011;27136;53.810;8.886;2022-08-06T07:37:15;4.97;;;1.20;;
41394;SDS011;27136;53.810;8.886;2022-08-06T07:39:45;2.70;;;0.85;;
41394;SDS011;27136;53.810;8.886;2022-08-06T07:42:13;3.53;;;1.02;;
41394;SDS011;27136;53.810;8.886;2022-08-06T07:44:44;2.00;;;0.77;;
41394;SDS011;27136;53.810;8.886;2022-08-06T07:47:15;2.97;;;0.90;;
41394;SDS011;27136;53.810;8.886;2022-08-06T07:49:53;2.75;;;0.90;;
41394;SDS011;27136;53.810;8.886;2022-08-06T07:52:21;2.65;;;0.95;;
41394;SDS011;27136;53.810;8.886;2022-08-06T07:54:46;2.13;;;0.80;;
41394;SDS011;27136;53.810;8.886;2022-08-06T07:57:13;4.05;;;1.20;;
41394;SDS011;27136;53.810;8.886;2022-08-06T07:59:39;2.10;;;0.68;;
41394;SDS011;27136;53.810;8.886;2022-08-06T08:02:05;3.38;;;0.90;;
41394;SDS011;27136;53.810;8.886;2022-08-06T08:04:32;8.43;;;1.08;;
41394;SDS011;27136;53.810;8.886;2022-08-06T08:07:17;3.70;;;1.08;;
41394;SDS011;27136;53.810;8.886;2022-08-06T08:09:43;4.80;;;1.02;;
41394;SDS011;27136;53.810;8.886;2022-08-06T08:12:16;4.38;;;1.13;;
41394;SDS011;27136;53.810;8.886;2022-08-06T08:14:43;4.65;;;0.70;;
41394;SDS011;27136;53.810;8.886;2022-08-06T08:17:10;6.57;;;1.23;;
41394;SDS011;27136;53.810;8.886;2022-08-06T08:19:36;4.38;;;1.40;;
41394;SDS011;27136;53.810;8.886;2022-08-06T08:22:04;5.85;;;1.58;;
41394;SDS011;27136;53.810;8.886;2022-08-06T08:24:31;7.25;;;2.10;;
41394;SDS011;27136;53.810;8.886;2022-08-06T08:26:58;4.80;;;1.85;;
41394;SDS011;27136;53.810;8.886;2022-08-06T08:29:25;5.10;;;2.90;;
41394;SDS011;27136;53.810;8.886;2022-08-06T08:31:51;10.48;;;4.00;;
41394;SDS011;27136;53.810;8.886;2022-08-06T08:34:17;6.68;;;3.50;;
41394;SDS011;27136;53.810;8.886;2022-08-06T08:36:42;6.43;;;3.75;;
41394;SDS011;27136;53.810;8.886;2022-08-06T08:39:08;5.68;;;3.20;;
41394;SDS011;27136;53.810;8.886;2022-08-06T08:41:43;6.35;;;3.40;;
41394;SDS011;27136;53.810;8.886;2022-08-06T08:44:11;6.60;;;3.70;;
41394;SDS011;27136;53.810;8.886;2022-08-06T08:46:38;7.18;;;3.30;;
41394;SDS011;27136;53.810;8.886;2022-08-06T08:49:05;4.75;;;3.45;;
41394;SDS011;27136;53.810;8.886;2022-08-06T08:51:34;6.32;;;4.28;;
41394;SDS011;27136;53.810;8.886;2022-08-06T08:54:05;7.60;;;4.20;;
41394;SDS011;27136;53.810;8.886;2022-08-06T08:58:59;8.93;;;3.33;;
41394;SDS011;27136;53.810;8.886;2022-08-06T09:03:52;6.55;;;3.70;;
41394;SDS011;27136;53.810;8.886;2022-08-06T09:06:18;9.00;;;4.07;;
41394;SDS011;27136;53.810;8.886;2022-08-06T09:08:46;6.85;;;3.35;;
41394;SDS011;27136;53.810;8.886;2022-08-06T09:11:13;4.80;;;3.42;;
41394;SDS011;27136;53.810;8.886;2022-08-06T09:13:38;8.60;;;4.38;;
41394;SDS011;27136;53.810;8.886;2022-08-06T09:16:04;5.70;;;3.55;;
41394;SDS011;27136;53.810;8.886;2022-08-06T09:18:30;5.32;;;4.03;;
41394;SDS011;27136;53.810;8.886;2022-08-06T09:20:57;7.22;;;4.18;;
41394;SDS011;27136;53.810;8.886;2022-08-06T09:23:25;6.57;;;4.18;;
41394;SDS011;27136;53.810;8.886;2022-08-06T09:25:51;6.90;;;3.65;;
41394;SDS011;27136;53.810;8.886;2022-08-06T09:31:07;6.68;;;3.80;;
41394;SDS011;27136;53.810;8.886;2022-08-06T09:33:36;8.07;;;3.90;;
41394;SDS011;27136;53.810;8.886;2022-08-06T09:36:08;7.68;;;3.72;;
41394;SDS011;27136;53.810;8.886;2022-08-06T09:41:18;4.55;;;3.58;;
41394;SDS011;27136;53.810;8.886;2022-08-06T09:43:46;4.93;;;3.77;;
41394;SDS011;27136;53.810;8.886;2022-08-06T09:46:13;6.68;;;4.43;;
41394;SDS011;27136;53.810;8.886;2022-08-06T09:48:59;6.65;;;4.40;;
41394;SDS011;27136;53.810;8.886;2022-08-06T09:51:26;7.35;;;4.60;;
41394;SDS011;27136;53.810;8.886;2022-08-06T09:53:56;7.30;;;4.50;;
41394;SDS011;27136;53.810;8.886;2022-08-06T09:56:23;5.43;;;3.95;;
41394;SDS011;27136;53.810;8.886;2022-08-06T09:58:50;6.72;;;3.70;;
41394;SDS011;27136;53.810;8.886;2022-08-06T10:01:22;7.95;;;4.13;;
41394;SDS011;27136;53.810;8.886;2022-08-06T10:03:49;9.13;;;4.90;;
41394;SDS011;27136;53.810;8.886;2022-08-06T10:06:16;9.10;;;4.45;;
41394;SDS011;27136;53.810;8.886;2022-08-06T10:08:49;6.70;;;4.63;;
41394;SDS011;27136;53.810;8.886;2022-08-06T10:11:36;7.70;;;5.30;;
41394;SDS011;27136;53.810;8.886;2022-08-06T10:14:03;8.05;;;4.28;;
41394;SDS011;27136;53.810;8.886;2022-08-06T10:16:29;6.32;;;4.72;;
41394;SDS011;27136;53.810;8.886;2022-08-06T10:18:56;10.85;;;5.07;;
41394;SDS011;27136;53.810;8.886;2022-08-06T10:21:23;7.25;;;5.18;;
41394;SDS011;27136;53.810;8.886;2022-08-06T10:23:52;5.72;;;4.72;;
41394;SDS011;27136;53.810;8.886;2022-08-06T10:26:25;8.35;;;4.72;;
41394;SDS011;27136;53.810;8.886;2022-08-06T10:29:00;7.72;;;5.15;;
41394;SDS011;27136;53.810;8.886;2022-08-06T10:31:28;6.65;;;5.32;;
41394;SDS011;27136;53.810;8.886;2022-08-06T10:33:59;6.03;;;5.43;;
41394;SDS011;27136;53.810;8.886;2022-08-06T10:36:40;9.13;;;5.47;;
41394;SDS011;27136;53.810;8.886;2022-08-06T10:39:09;5.35;;;4.72;;
41394;SDS011;27136;53.810;8.886;2022-08-06T10:41:35;8.90;;;5.63;;
41394;SDS011;27136;53.810;8.886;2022-08-06T10:44:04;8.13;;;4.82;;
41394;SDS011;27136;53.810;8.886;2022-08-06T10:46:30;6.05;;;4.80;;
41394;SDS011;27136;53.810;8.886;2022-08-06T10:48:56;8.02;;;5.50;;
41394;SDS011;27136;53.810;8.886;2022-08-06T10:51:23;6.68;;;5.05;;
41394;SDS011;27136;53.810;8.886;2022-08-06T10:53:49;6.97;;;5.45;;
41394;SDS011;27136;53.810;8.886;2022-08-06T10:56:16;8.27;;;5.00;;
41394;SDS011;27136;53.810;8.886;2022-08-06T10:58:43;7.68;;;5.53;;
41394;SDS011;27136;53.810;8.886;2022-08-06T11:01:10;5.45;;;4.47;;
41394;SDS011;27136;53.810;8.886;2022-08-06T11:09:08;9.43;;;5.78;;
41394;SDS011;27136;53.810;8.886;2022-08-06T11:14:35;7.28;;;5.32;;
41394;SDS011;27136;53.810;8.886;2022-08-06T11:17:02;6.60;;;5.45;;
41394;SDS011;27136;53.810;8.886;2022-08-06T11:22:05;7.97;;;4.75;;
41394;SDS011;27136;53.810;8.886;2022-08-06T11:24:31;6.70;;;5.38;;
41394;SDS011;27136;53.810;8.886;2022-08-06T11:26:58;7.95;;;5.75;;
41394;SDS011;27136;53.810;8.886;2022-08-06T11:29:23;9.05;;;5.47;;
41394;SDS011;27136;53.810;8.886;2022-08-06T11:31:49;7.00;;;5.38;;
41394;SDS011;27136;53.810;8.886;2022-08-06T11:34:19;6.20;;;5.05;;
41394;SDS011;27136;53.810;8.886;2022-08-06T11:39:12;7.65;;;5.47;;
41394;SDS011;27136;53.810;8.886;2022-08-06T11:41:46;7.55;;;4.65;;
41394;SDS011;27136;53.810;8.886;2022-08-06T11:44:31;7.78;;;5.60;;
41394;SDS011;27136;53.810;8.886;2022-08-06T11:47:11;7.22;;;4.97;;
41394;SDS011;27136;53.810;8.886;2022-08-06T11:49:39;8.55;;;5.15;;
41394;SDS011;27136;53.810;8.886;2022-08-06T11:52:09;8.70;;;5.50;;
41394;SDS011;27136;53.810;8.886;2022-08-06T11:54:58;9.60;;;7.00;;
41394;SDS011;27136;53.810;8.886;2022-08-06T11:57:26;7.25;;;5.63;;
41394;SDS011;27136;53.810;8.886;2022-08-06T12:05:04;8.65;;;5.22;;
41394;SDS011;27136;53.810;8.886;2022-08-06T12:13:45;6.28;;;5.60;;
41394;SDS011;27136;53.810;8.886;2022-08-06T12:16:33;8.23;;;5.50;;
41394;SDS011;27136;53.810;8.886;2022-08-06T12:19:01;8.75;;;6.22;;
41394;SDS011;27136;53.810;8.886;2022-08-06T12:21:28;7.28;;;5.50;;
41394;SDS011;27136;53.810;8.886;2022-08-06T12:23:54;7.15;;;4.88;;
41394;SDS011;27136;53.810;8.886;2022-08-06T12:26:21;6.05;;;5.18;;
41394;SDS011;27136;53.810;8.886;2022-08-06T12:28:47;7.35;;;5.20;;
41394;SDS011;27136;53.810;8.886;2022-08-06T12:31:25;5.68;;;4.45;;
41394;SDS011;27136;53.810;8.886;2022-08-06T12:33:53;7.53;;;4.78;;
41394;SDS011;27136;53.810;8.886;2022-08-06T12:36:18;6.97;;;4.95;;
41394;SDS011;27136;53.810;8.886;2022-08-06T12:38:44;5.93;;;4.93;;
41394;SDS011;27136;53.810;8.886;2022-08-06T12:41:19;6.90;;;5.35;;
41394;SDS011;27136;53.810;8.886;2022-08-06T12:43:44;7.00;;;5.40;;
41394;SDS011;27136;53.810;8.886;2022-08-06T12:46:10;5.88;;;4.75;;
41394;SDS011;27136;53.810;8.886;2022-08-06T12:48:36;7.18;;;5.18;;
41394;SDS011;27136;53.810;8.886;2022-08-06T12:51:10;7.72;;;4.38;;
41394;SDS011;27136;53.810;8.886;2022-08-06T12:53:48;5.60;;;4.20;;
41394;SDS011;27136;53.810;8.886;2022-08-06T12:56:16;9.50;;;6.10;;
41394;SDS011;27136;53.810;8.886;2022-08-06T12:58:43;7.32;;;4.90;;
41394;SDS011;27136;53.810;8.886;2022-08-06T13:01:16;6.53;;;4.80;;
41394;SDS011;27136;53.810;8.886;2022-08-06T13:03:45;7.43;;;4.45;;
41394;SDS011;27136;53.810;8.886;2022-08-06T13:06:13;6.43;;;5.55;;
41394;SDS011;27136;53.810;8.886;2022-08-06T13:08:41;9.05;;;6.10;;
41394;SDS011;27136;53.810;8.886;2022-08-06T13:11:10;6.63;;;5.18;;
41394;SDS011;27136;53.810;8.886;2022-08-06T13:13:49;9.77;;;6.13;;
41394;SDS011;27136;53.810;8.886;2022-08-06T13:16:16;9.15;;;5.88;;
41394;SDS011;27136;53.810;8.886;2022-08-06T13:18:53;7.95;;;5.60;;
41394;SDS011;27136;53.810;8.886;2022-08-06T13:21:29;6.78;;;5.88;;
41394;SDS011;27136;53.810;8.886;2022-08-06T13:23:55;8.35;;;5.53;;
41394;SDS011;27136;53.810;8.886;2022-08-06T13:26:22;7.05;;;5.40;;
41394;SDS011;27136;53.810;8.886;2022-08-06T13:31:33;5.78;;;4.97;;
41394;SDS011;27136;53.810;8.886;2022-08-06T13:34:06;8.13;;;4.82;;
41394;SDS011;27136;53.810;8.886;2022-08-06T13:36:35;8.80;;;5.70;;
41394;SDS011;27136;53.810;8.886;2022-08-06T13:41:46;7.18;;;5.07;;
41394;SDS011;27136;53.810;8.886;2022-08-06T13:44:28;6.95;;;5.18;;
41394;SDS011;27136;53.810;8.886;2022-08-06T13:46:54;6.28;;;4.72;;
41394;SDS011;27136;53.810;8.886;2022-08-06T13:49:20;6.65;;;5.00;;
41394;SDS011;27136;53.810;8.886;2022-08-06T13:51:46;7.07;;;5.45;;
41394;SDS011;27136;53.810;8.886;2022-08-06T13:54:11;7.55;;;5.40;;
41394;SDS011;27136;53.810;8.886;2022-08-06T13:56:37;6.63;;;5.05;;
41394;SDS011;27136;53.810;8.886;2022-08-06T13:59:02;6.38;;;5.57;;
41394;SDS011;27136;53.810;8.886;2022-08-06T14:01:28;8.05;;;5.28;;
41394;SDS011;27136;53.810;8.886;2022-08-06T14:03:54;6.35;;;4.95;;
41394;SDS011;27136;53.810;8.886;2022-08-06T14:06:20;7.20;;;5.40;;
41394;SDS011;27136;53.810;8.886;2022-08-06T14:08:46;9.27;;;5.53;;
41394;SDS011;27136;53.810;8.886;2022-08-06T14:11:11;6.72;;;5.55;;
41394;SDS011;27136;53.810;8.886;2022-08-06T14:13:37;7.50;;;5.75;;
41394;SDS011;27136;53.810;8.886;2022-08-06T14:16:02;7.15;;;5.65;;
41394;SDS011;27136;53.810;8.886;2022-08-06T14:18:28;6.80;;;6.07;;
41394;SDS011;27136;53.810;8.886;2022-08-06T14:20:54;10.00;;;5.75;;
41394;SDS011;27136;53.810;8.886;2022-08-06T14:23:20;6.18;;;4.90;;
41394;SDS011;27136;53.810;8.886;2022-08-06T14:25:46;6.82;;;5.90;;
41394;SDS011;27136;53.810;8.886;2022-08-06T14:28:12;7.07;;;5.43;;
41394;SDS011;27136;53.810;8.886;2022-08-06T14:30:37;6.18;;;5.47;;
41394;SDS011;27136;53.810;8.886;2022-08-06T14:33:04;7.40;;;5.53;;
41394;SDS011;27136;53.810;8.886;2022-08-06T14:35:34;6.65;;;5.45;;
41394;SDS011;27136;53.810;8.886;2022-08-06T14:38:02;8.10;;;5.68;;
41394;SDS011;27136;53.810;8.886;2022-08-06T14:40:28;6.80;;;5.78;;
41394;SDS011;27136;53.810;8.886;2022-08-06T14:43:13;6.57;;;5.70;;
41394;SDS011;27136;53.810;8.886;2022-08-06T14:45:57;6.78;;;6.10;;
41394;SDS011;27136;53.810;8.886;2022-08-06T14:48:23;7.30;;;5.60;;
41394;SDS011;27136;53.810;8.886;2022-08-06T14:50:48;8.00;;;6.03;;
41394;SDS011;27136;53.810;8.886;2022-08-06T14:53:14;6.93;;;5.55;;
41394;SDS011;27136;53.810;8.886;2022-08-06T14:55:40;6.47;;;5.88;;
41394;SDS011;27136;53.810;8.886;2022-08-06T14:58:05;7.45;;;5.80;;
41394;SDS011;27136;53.810;8.886;2022-08-06T15:00:31;9.35;;;5.55;;
41394;SDS011;27136;53.810;8.886;2022-08-06T15:02:56;6.47;;;5.68;;
41394;SDS011;27136;53.810;8.886;2022-08-06T15:05:22;7.82;;;5.50;;
41394;SDS011;27136;53.810;8.886;2022-08-06T15:07:47;6.18;;;5.53;;
41394;SDS011;27136;53.810;8.886;2022-08-06T15:10:13;7.28;;;6.53;;
41394;SDS011;27136;53.810;8.886;2022-08-06T15:12:38;7.20;;;5.15;;
41394;SDS011;27136;53.810;8.886;2022-08-06T15:15:04;7.90;;;5.68;;
41394;SDS011;27136;53.810;8.886;2022-08-06T15:17:31;6.45;;;5.85;;
41394;SDS011;27136;53.810;8.886;2022-08-06T15:19:57;7.43;;;5.88;;
41394;SDS011;27136;53.810;8.886;2022-08-06T15:22:23;6.72;;;6.00;;
41394;SDS011;27136;53.810;8.886;2022-08-06T15:24:48;7.43;;;5.07;;
41394;SDS011;27136;53.810;8.886;2022-08-06T15:27:14;7.10;;;5.75;;
41394;SDS011;27136;53.810;8.886;2022-08-06T15:29:44;6.63;;;5.57;;
41394;SDS011;27136;53.810;8.886;2022-08-06T15:32:10;8.40;;;5.75;;
41394;SDS011;27136;53.810;8.886;2022-08-06T15:34:36;9.18;;;7.05;;
41394;SDS011;27136;53.810;8.886;2022-08-06T15:37:02;8.60;;;6.07;;
41394;SDS011;27136;53.810;8.886;2022-08-06T15:39:28;8.40;;;5.80;;
41394;SDS011;27136;53.810;8.886;2022-08-06T15:41:54;10.05;;;6.00;;
41394;SDS011;27136;53.810;8.886;2022-08-06T15:44:20;8.73;;;6.68;;
41394;SDS011;27136;53.810;8.886;2022-08-06T15:46:45;7.30;;;5.97;;
41394;SDS011;27136;53.810;8.886;2022-08-06T15:49:11;6.22;;;5.47;;
41394;SDS011;27136;53.810;8.886;2022-08-06T15:51:36;6.47;;;5.82;;
41394;SDS011;27136;53.810;8.886;2022-08-06T15:54:02;6.82;;;5.80;;
41394;SDS011;27136;53.810;8.886;2022-08-06T15:56:27;6.25;;;5.47;;
41394;SDS011;27136;53.810;8.886;2022-08-06T15:58:55;7.72;;;5.05;;
41394;SDS011;27136;53.810;8.886;2022-08-06T16:01:21;6.88;;;4.80;;
41394;SDS011;27136;53.810;8.886;2022-08-06T16:03:46;8.30;;;5.68;;
41394;SDS011;27136;53.810;8.886;2022-08-06T16:06:12;5.03;;;4.53;;
41394;SDS011;27136;53.810;8.886;2022-08-06T16:08:38;5.50;;;4.60;;
41394;SDS011;27136;53.810;8.886;2022-08-06T16:11:04;6.32;;;4.65;;
41394;SDS011;27136;53.810;8.886;2022-08-06T16:13:30;6.45;;;5.25;;